Annapolis, Washington
Current Conditions -  °F | °C
As of 8:15 AM on Wednesday 22 Oct 2014 (Local Time) from KPWT Reporting Station
Overcast Overcast  
Wind Chill: 13°   Ceiling: 600
Heat Index: 13°   Visibility: 10mi
Dew Point: 12°   Wind: 17mph
Humidity: 94%   Direction: 170°S
Pressure: 29.71"   Gusts: NA
Location:  47.5378°N, 122.589°W
Report Text: KPWT 221515Z AUTO 17015KT 10SM BKN006 BKN013 OVC018 13/12 A2971 RMK AO1
Loading
Personal Weather Stations






























Interactive Weather Map
Tropical Storm Tracking
New forecast layout! Learn more

10-Day Weather Forecast

Advertisements
Track Severe Weather on mobile